Colorado Springs, CO (80921)

2:23 PM MDT on March 30, 2015 (GMT -0600)
Struthers Ranch | | Change Station
CLOSE
Current Station
Personal Weather Station
Location: Colorado Springs, CO
Elevation: 6867 ft
Nearby Weather Stations

Elev 6867 ft 39.04 °N, 104.83 °W | Updated 10 minutes ago

Partly Cloudy
Partly Cloudy
67.5 °F
Feels Like 67.5 °F
N
8.9
Wind Variable Wind from West

Today
High -- | Low -- °F
--% Chance of Precip.
Yesterday
High -- | Low -- °F
Precip. -- in
6:47 AM 7:20 PM
Waxing Gibbous, 82% visible
Pressure 30.06 in
Visibility 10.0 miles
Clouds Few 19000 ft
Dew Point 15 °F
Humidity 13%
Rainfall 0.00 in
Snow Depth Not available.
UV 8 out of 12
Pollen 11.80 out of 12
Air Quality Not available.
Flu Activity Not available.
METAR KAFF 301958Z AUTO VRB04KT 10SM FEW190 20/M15 A3017 RMK AO2 SLP177 T02011150

More Conditions Fewer Conditions

Pressure 30.06 in
Visibility 10.0 miles
Clouds Few 19000 ft
Dew Point 15 °F
Humidity 13%
Rainfall 0.00 in
Snow Depth Not available.
UV 8 out of 12
Pollen 11.80 out of 12
Air Quality Not available.
Flu Activity Not available.
METAR KAFF 301958Z AUTO VRB04KT 10SM FEW190 20/M15 A3017 RMK AO2 SLP177 T02011150

More Conditions Fewer Conditions

10-Day Weather Forecast

Almanac

Astronomy

Mar. 30, 2015 Rise Set
Actual Time
Civil Twilight
Nautical Twilight
Astronomical Twilight
Moon
Length of Visible Light
Length of Day
Tomorrow will be .
, % of the Moon is Illuminated

Today's Extremes

State Highs State Lows

Community

WunderPhotos

Upload Photos

1,809,581 photos uploaded!

WunderBlogs® & News

Nearby

Air Quality

  Air Quality AQ Index Pollutant
Not available.

Snow Depth

Station Depth Elevation

Earthquake Activity

City Distance Mag. Time & Date
Minimum magnitude displayed is 2.5.

Coastal Water Temperatures

Place Temperature

Stations

Nearby Weather Stations

Station Location Temp. Windchill Dew Point Humidity Wind Precip. Elev Updated Type